Time;durP1;ratioP1;P1;durP2;ratioP2;P2;SDS_P1;SDS_P2;PMS_P1;PMS_P2;Temp;Humidity;BMP_temperature;BMP_pressure;BME280_temperature;BME280_humidity;BME280_pressure;Samples;Min_cycle;Max_cycle;Signal;HPM_P1;HPM_P2
2021/07/15 00:01:39;;;;;;;1.30;1.27;;;24.60;70.50;;;;;;5005917;28;20196;-56
2021/07/15 00:04:05;;;;;;;1.08;1.08;;;24.60;70.50;;;;;;4996296;28;20208;-57
2021/07/15 00:06:32;;;;;;;1.20;1.10;;;24.60;70.50;;;;;;5012186;28;20231;-56
2021/07/15 00:08:58;;;;;;;1.10;1.00;;;24.60;70.30;;;;;;4997191;28;20208;-53
2021/07/15 00:11:25;;;;;;;1.10;1.00;;;24.60;70.40;;;;;;5006862;28;20283;-56
2021/07/15 00:13:51;;;;;;;0.90;0.90;;;24.60;70.30;;;;;;4994074;28;20302;-55
2021/07/15 00:16:17;;;;;;;1.27;1.17;;;24.60;70.20;;;;;;4992939;28;20319;-56
2021/07/15 00:18:44;;;;;;;1.30;1.20;;;24.60;70.10;;;;;;4993149;28;20208;-56
2021/07/15 00:21:10;;;;;;;1.15;1.15;;;24.60;70.20;;;;;;4999677;28;20202;-50
2021/07/15 00:23:37;;;;;;;1.05;0.90;;;24.60;70.20;;;;;;5002013;28;20215;-56
2021/07/15 00:26:04;;;;;;;1.25;1.20;;;24.60;70.00;;;;;;5008484;28;20210;-56
2021/07/15 00:28:30;;;;;;;0.90;0.90;;;24.60;70.00;;;;;;5000425;28;20659;-56
2021/07/15 00:30:57;;;;;;;0.90;0.90;;;24.60;69.90;;;;;;5002885;28;20203;-56
2021/07/15 00:33:23;;;;;;;1.10;1.00;;;24.60;69.90;;;;;;4997213;28;20321;-56
2021/07/15 00:35:50;;;;;;;0.80;0.80;;;24.60;70.00;;;;;;4995198;28;20209;-53
2021/07/15 00:38:16;;;;;;;1.02;1.00;;;24.60;69.90;;;;;;5001974;28;20721;-55
2021/07/15 00:40:43;;;;;;;1.08;1.02;;;24.60;70.00;;;;;;4998309;28;20199;-56
2021/07/15 00:43:09;;;;;;;1.08;1.00;;;24.60;70.00;;;;;;4992183;28;20208;-55
2021/07/15 00:45:36;;;;;;;1.15;1.15;;;24.60;70.00;;;;;;4993873;28;20202;-55
2021/07/15 00:48:02;;;;;;;1.02;0.93;;;24.60;70.00;;;;;;5012000;28;20227;-57
2021/07/15 00:50:30;;;;;;;1.05;0.95;;;24.60;69.80;;;;;;4998253;28;20215;-55
2021/07/15 00:52:57;;;;;;;0.95;0.93;;;24.60;69.80;;;;;;4992635;28;20290;-57
2021/07/15 00:55:23;;;;;;;1.10;1.10;;;24.60;69.80;;;;;;4990808;28;20678;-57
2021/07/15 00:57:49;;;;;;;0.90;0.90;;;24.60;69.90;;;;;;4971934;28;20319;-56
2021/07/15 01:00:16;;;;;;;1.10;1.10;;;24.60;69.80;;;;;;4981918;28;20212;-54
2021/07/15 01:02:42;;;;;;;0.80;0.80;;;24.60;69.70;;;;;;4993731;28;20234;-54
2021/07/15 01:05:09;;;;;;;1.00;1.00;;;24.60;69.80;;;;;;4991807;28;20288;-56
2021/07/15 01:07:35;;;;;;;1.10;0.98;;;24.60;69.80;;;;;;5005467;28;20249;-57
2021/07/15 01:10:02;;;;;;;1.13;1.00;;;24.60;69.70;;;;;;4994197;28;20286;-56
2021/07/15 01:12:28;;;;;;;0.95;0.95;;;24.60;69.80;;;;;;4998125;28;20214;-57
2021/07/15 01:14:54;;;;;;;1.52;1.02;;;24.60;69.90;;;;;;4991939;28;20212;-56
2021/07/15 01:17:21;;;;;;;1.08;1.08;;;24.60;69.90;;;;;;4997412;28;20231;-54
2021/07/15 01:19:47;;;;;;;1.20;1.10;;;24.60;69.90;;;;;;4991479;28;20222;-56
2021/07/15 01:22:14;;;;;;;1.15;1.15;;;24.60;69.80;;;;;;4998989;28;20234;-55
2021/07/15 01:24:40;;;;;;;1.27;1.13;;;24.60;69.90;;;;;;4991234;28;20581;-55
2021/07/15 01:27:07;;;;;;;1.00;1.00;;;24.60;69.80;;;;;;5001011;28;20596;-52
2021/07/15 01:29:33;;;;;;;0.80;0.80;;;24.60;69.90;;;;;;4991016;28;20547;-56
2021/07/15 01:31:59;;;;;;;1.73;1.15;;;24.60;69.90;;;;;;5000463;28;20543;-57
2021/07/15 01:34:26;;;;;;;1.05;1.02;;;24.60;69.90;;;;;;4990841;28;20279;-56
2021/07/15 01:36:52;;;;;;;0.90;0.90;;;24.60;69.90;;;;;;4999008;28;20273;-55
2021/07/15 01:39:21;;;;;;;1.20;1.10;;;24.60;69.80;;;;;;5005971;28;20299;-56
2021/07/15 01:41:48;;;;;;;1.00;1.00;;;24.60;69.80;;;;;;4998033;28;20250;-56
2021/07/15 01:44:15;;;;;;;0.90;0.90;;;24.60;69.80;;;;;;4995037;28;20203;-55
2021/07/15 01:46:42;;;;;;;0.90;0.90;;;24.60;69.90;;;;;;4972936;28;20228;-54
2021/07/15 01:49:08;;;;;;;0.98;0.98;;;24.60;69.80;;;;;;4983720;28;20694;-55
2021/07/15 01:51:35;;;;;;;1.20;1.20;;;24.60;69.80;;;;;;4993432;28;20686;-56
2021/07/15 01:54:01;;;;;;;0.80;0.80;;;24.60;69.70;;;;;;5007591;28;20655;-56
2021/07/15 01:56:28;;;;;;;0.90;0.90;;;24.60;69.70;;;;;;4990217;28;20731;-55
2021/07/15 01:58:54;;;;;;;1.27;1.17;;;24.60;69.90;;;;;;4990200;28;20703;-54
2021/07/15 02:01:20;;;;;;;0.93;0.93;;;24.60;69.80;;;;;;4997089;28;20567;-54
2021/07/15 02:03:47;;;;;;;0.90;0.90;;;24.60;69.80;;;;;;4996619;28;20226;-54
2021/07/15 02:06:13;;;;;;;0.98;0.98;;;24.60;69.90;;;;;;4991266;28;20223;-52
2021/07/15 02:08:40;;;;;;;0.95;0.95;;;24.60;69.90;;;;;;4994708;28;20270;-55
2021/07/15 02:11:07;;;;;;;0.82;0.82;;;24.60;69.80;;;;;;4990452;28;20207;-49
2021/07/15 02:13:33;;;;;;;1.13;1.13;;;24.60;69.80;;;;;;4993705;28;20211;-56
2021/07/15 02:16:00;;;;;;;1.25;0.95;;;24.60;69.70;;;;;;4990405;28;20383;-56
2021/07/15 02:18:26;;;;;;;0.90;0.90;;;24.60;69.70;;;;;;4999132;28;20226;-54
2021/07/15 02:20:52;;;;;;;1.00;1.00;;;24.60;69.70;;;;;;4993874;28;20200;-51
2021/07/15 02:23:19;;;;;;;1.00;1.00;;;24.60;69.70;;;;;;4993573;28;20216;-55
2021/07/15 02:25:45;;;;;;;1.10;1.00;;;24.60;69.70;;;;;;4990413;28;20287;-54
2021/07/15 02:28:12;;;;;;;0.88;0.88;;;24.60;69.90;;;;;;4994240;28;20295;-51
2021/07/15 02:30:38;;;;;;;1.10;1.10;;;24.60;69.90;;;;;;4994214;28;20212;-56
2021/07/15 02:33:05;;;;;;;0.95;0.95;;;24.60;69.90;;;;;;4996293;28;20630;-55
2021/07/15 02:35:31;;;;;;;0.90;0.90;;;24.60;69.90;;;;;;4995023;28;20210;-55
2021/07/15 02:37:58;;;;;;;1.05;1.05;;;24.60;69.90;;;;;;5007508;28;20238;-56
2021/07/15 02:40:24;;;;;;;0.98;0.98;;;24.60;69.90;;;;;;5011856;28;20203;-54
2021/07/15 02:42:51;;;;;;;0.90;0.90;;;24.60;69.80;;;;;;4997254;28;20289;-56
2021/07/15 02:45:17;;;;;;;1.40;0.93;;;24.60;69.90;;;;;;5006369;28;20223;-56
2021/07/15 02:47:43;;;;;;;0.90;0.90;;;24.60;69.80;;;;;;4995405;28;20225;-52
2021/07/15 02:50:10;;;;;;;1.02;1.02;;;24.60;69.80;;;;;;5013855;28;20209;-50
2021/07/15 02:52:36;;;;;;;1.00;1.00;;;24.60;70.50;;;;;;5001222;28;20200;-56
2021/07/15 02:55:03;;;;;;;1.00;1.00;;;24.50;69.70;;;;;;5012574;28;20207;-53
2021/07/15 02:57:29;;;;;;;1.00;1.00;;;24.60;69.70;;;;;;5005360;28;20592;-56
2021/07/15 02:59:56;;;;;;;0.70;0.70;;;24.60;69.70;;;;;;5012473;28;20584;-52
2021/07/15 03:02:23;;;;;;;1.60;1.17;;;24.60;69.70;;;;;;5002423;28;20208;-54
2021/07/15 03:04:49;;;;;;;0.90;0.90;;;24.50;69.50;;;;;;5011253;28;20213;-49
2021/07/15 03:07:16;;;;;;;0.90;0.90;;;24.50;69.50;;;;;;5010328;28;20232;-55
2021/07/15 03:09:42;;;;;;;1.20;0.77;;;24.50;69.50;;;;;;5000538;28;20204;-53
2021/07/15 03:12:09;;;;;;;1.02;0.90;;;24.50;69.40;;;;;;4994244;28;20206;-53
2021/07/15 03:14:35;;;;;;;1.45;1.20;;;24.50;69.50;;;;;;5007710;28;20203;-53
2021/07/15 03:17:01;;;;;;;1.00;0.90;;;24.50;69.60;;;;;;5000987;28;20307;-56
2021/07/15 03:19:28;;;;;;;1.00;1.00;;;24.50;69.60;;;;;;5003172;28;20206;-52
2021/07/15 03:21:54;;;;;;;0.93;0.93;;;24.50;69.60;;;;;;5002002;28;20581;-56
2021/07/15 03:24:21;;;;;;;0.95;0.95;;;24.60;69.80;;;;;;5008399;28;20554;-51
2021/07/15 03:26:47;;;;;;;1.10;1.00;;;24.50;69.60;;;;;;5003869;28;20318;-55
2021/07/15 03:29:14;;;;;;;1.08;1.08;;;24.60;69.80;;;;;;4996737;28;20207;-50
2021/07/15 03:31:40;;;;;;;0.93;0.93;;;24.50;69.70;;;;;;4993743;28;20214;-54
2021/07/15 03:34:07;;;;;;;1.05;1.02;;;24.50;69.80;;;;;;4992823;28;20212;-54
2021/07/15 03:36:33;;;;;;;1.00;1.00;;;24.50;69.80;;;;;;4999011;28;20230;-52
2021/07/15 03:39:00;;;;;;;1.08;0.98;;;24.60;69.80;;;;;;4992639;28;20238;-51
2021/07/15 03:41:26;;;;;;;0.93;0.93;;;24.60;69.90;;;;;;5000780;28;20196;-55
2021/07/15 03:43:52;;;;;;;1.00;1.00;;;24.50;69.80;;;;;;5005454;28;20310;-55
2021/07/15 03:46:19;;;;;;;0.90;0.90;;;24.50;69.80;;;;;;4990263;28;20232;-56
2021/07/15 03:48:45;;;;;;;0.90;0.90;;;24.60;69.80;;;;;;4979417;28;20196;-53
2021/07/15 03:51:12;;;;;;;1.02;0.98;;;24.50;69.60;;;;;;5001238;28;20207;-55
2021/07/15 03:53:38;;;;;;;1.35;1.35;;;24.50;69.60;;;;;;4992198;28;20199;-53
2021/07/15 03:56:05;;;;;;;0.80;0.80;;;24.50;69.70;;;;;;4993279;28;20216;-55
2021/07/15 03:58:31;;;;;;;1.15;1.08;;;24.50;69.60;;;;;;4996514;28;20241;-56
2021/07/15 04:00:58;;;;;;;0.90;0.90;;;24.60;69.70;;;;;;4994195;28;20230;-53
2021/07/15 04:03:24;;;;;;;0.90;0.90;;;24.50;70.40;;;;;;4994205;28;20207;-56
2021/07/15 04:05:51;;;;;;;0.70;0.70;;;24.50;69.60;;;;;;4992919;28;20234;-57
2021/07/15 04:08:17;;;;;;;0.93;0.93;;;24.50;69.70;;;;;;4995558;28;20199;-55
2021/07/15 04:10:43;;;;;;;0.90;0.90;;;24.50;69.60;;;;;;4997895;28;20204;-54
2021/07/15 04:13:10;;;;;;;1.00;1.00;;;24.50;69.60;;;;;;4993142;28;20214;-56
2021/07/15 04:15:36;;;;;;;0.90;0.90;;;24.50;69.60;;;;;;4994220;28;20216;-56
2021/07/15 04:18:03;;;;;;;0.95;0.95;;;24.50;69.60;;;;;;4994431;28;20224;-55
2021/07/15 04:20:29;;;;;;;1.02;0.80;;;24.50;69.60;;;;;;5000396;28;20207;-55
2021/07/15 04:22:56;;;;;;;1.27;1.10;;;24.50;69.50;;;;;;5004610;28;20214;-52
2021/07/15 04:25:22;;;;;;;0.93;0.93;;;24.50;69.70;;;;;;4994384;28;20200;-53
2021/07/15 04:27:48;;;;;;;1.08;1.00;;;24.50;69.70;;;;;;4991824;28;20207;-55
2021/07/15 04:30:15;;;;;;;0.90;0.90;;;24.50;69.70;;;;;;4992051;28;20235;-54
2021/07/15 04:32:41;;;;;;;0.90;0.90;;;24.50;69.60;;;;;;4992189;28;20200;-54
2021/07/15 04:35:08;;;;;;;0.90;0.90;;;24.50;69.50;;;;;;4994965;28;20203;-52
2021/07/15 04:37:34;;;;;;;0.88;0.88;;;24.50;69.70;;;;;;4985413;28;20218;-57
2021/07/15 04:40:01;;;;;;;0.98;0.98;;;24.50;69.60;;;;;;5011119;28;20294;-58
2021/07/15 04:42:27;;;;;;;0.80;0.80;;;24.60;69.70;;;;;;4992129;28;20608;-57
2021/07/15 04:44:53;;;;;;;1.00;1.00;;;24.50;69.70;;;;;;5005320;28;20222;-54
2021/07/15 04:47:20;;;;;;;0.80;0.80;;;24.50;69.70;;;;;;4991446;28;20271;-57
2021/07/15 04:49:46;;;;;;;0.90;0.90;;;24.50;69.60;;;;;;4989177;28;20291;-51
2021/07/15 04:52:13;;;;;;;1.00;0.90;;;24.50;69.70;;;;;;5002889;28;20214;-57
2021/07/15 04:54:39;;;;;;;0.88;0.80;;;24.50;69.70;;;;;;5009355;28;20203;-57
2021/07/15 04:57:06;;;;;;;1.15;0.90;;;24.60;69.90;;;;;;4992154;28;20224;-57
2021/07/15 04:59:33;;;;;;;0.95;0.95;;;24.50;69.90;;;;;;5000300;28;20234;-57
2021/07/15 05:01:59;;;;;;;1.50;1.10;;;24.50;69.90;;;;;;4993198;28;20616;-57
2021/07/15 05:04:26;;;;;;;0.68;0.68;;;24.60;70.00;;;;;;4998744;28;20660;-57
2021/07/15 05:06:54;;;;;;;1.13;1.02;;;24.60;70.00;;;;;;4998001;28;20231;-56
2021/07/15 05:09:20;;;;;;;0.98;0.98;;;24.60;69.90;;;;;;4986023;28;20270;-58
2021/07/15 05:11:47;;;;;;;0.90;0.90;;;24.60;70.00;;;;;;4994312;28;20200;-58
2021/07/15 05:14:13;;;;;;;0.82;0.82;;;24.60;69.80;;;;;;4994689;28;20218;-59
2021/07/15 05:16:40;;;;;;;1.25;1.08;;;24.60;69.90;;;;;;5006364;28;20223;-54
2021/07/15 05:19:06;;;;;;;0.90;0.90;;;24.60;69.90;;;;;;4991831;28;20233;-55
2021/07/15 05:21:33;;;;;;;0.93;0.93;;;24.60;70.10;;;;;;4991395;28;20243;-54
2021/07/15 05:24:00;;;;;;;1.35;1.15;;;24.60;70.10;;;;;;4991872;28;20244;-55
2021/07/15 05:26:26;;;;;;;1.00;1.00;;;24.60;70.20;;;;;;5003025;28;20230;-51
2021/07/15 05:28:54;;;;;;;0.90;0.90;;;24.60;70.30;;;;;;4977240;28;20712;-50
2021/07/15 05:31:21;;;;;;;1.50;0.90;;;24.60;70.30;;;;;;4990443;28;20695;-55
2021/07/15 05:33:47;;;;;;;0.90;0.90;;;24.60;70.40;;;;;;4992657;28;20674;-56
2021/07/15 05:36:14;;;;;;;1.30;0.90;;;24.50;70.20;;;;;;4981480;28;20229;-58
2021/07/15 05:38:42;;;;;;;1.48;1.10;;;24.60;70.20;;;;;;4987965;28;20231;-59
2021/07/15 05:41:08;;;;;;;2.42;1.17;;;24.50;70.30;;;;;;4982892;28;20222;-58
2021/07/15 05:43:35;;;;;;;1.70;1.02;;;24.50;70.60;;;;;;4990030;28;20217;-52
2021/07/15 05:46:02;;;;;;;1.13;0.93;;;24.50;70.50;;;;;;4992684;28;20226;-55
2021/07/15 05:48:28;;;;;;;3.22;1.20;;;24.50;70.50;;;;;;4990270;28;20291;-53
2021/07/15 05:50:55;;;;;;;2.28;1.20;;;24.40;69.10;;;;;;4999998;28;20701;-48
2021/07/15 05:53:21;;;;;;;1.20;1.10;;;24.20;66.50;;;;;;4993888;28;20637;-50
2021/07/15 05:55:48;;;;;;;1.00;0.90;;;23.80;64.60;;;;;;4988321;28;20591;-49
2021/07/15 05:58:14;;;;;;;1.75;1.10;;;23.60;64.00;;;;;;5005337;28;20302;-50
2021/07/15 06:00:41;;;;;;;1.38;0.90;;;23.50;64.70;;;;;;4986370;28;20563;-48
2021/07/15 06:03:07;;;;;;;4.10;1.20;;;23.70;65.00;;;;;;4993133;28;20200;-50
2021/07/15 06:05:34;;;;;;;1.50;1.00;;;23.80;64.60;;;;;;5009379;28;20223;-51
2021/07/15 06:08:00;;;;;;;1.42;0.93;;;23.90;64.80;;;;;;4998276;28;20208;-52
2021/07/15 06:10:27;;;;;;;1.80;1.10;;;24.00;65.10;;;;;;4998277;28;20334;-53
2021/07/15 06:12:53;;;;;;;2.65;1.20;;;24.10;64.90;;;;;;4999234;28;20199;-52
2021/07/15 06:15:19;;;;;;;0.80;0.80;;;24.20;64.90;;;;;;4997900;28;20243;-54
2021/07/15 06:17:46;;;;;;;0.98;0.95;;;24.20;64.90;;;;;;5006398;28;20687;-52
2021/07/15 06:20:13;;;;;;;2.47;0.85;;;24.20;65.00;;;;;;5008180;28;20203;-52
2021/07/15 06:22:39;;;;;;;1.23;0.90;;;24.20;65.00;;;;;;5003911;28;20303;-55
2021/07/15 06:25:06;;;;;;;1.10;1.05;;;24.20;65.00;;;;;;5002296;28;20227;-52
2021/07/15 06:27:32;;;;;;;1.33;1.02;;;24.20;65.20;;;;;;4998720;28;20195;-52
2021/07/15 06:29:59;;;;;;;1.13;0.95;;;24.20;65.20;;;;;;5004020;28;20754;-48
2021/07/15 06:32:25;;;;;;;2.80;1.00;;;24.30;65.50;;;;;;4977858;28;20580;-53
2021/07/15 06:34:51;;;;;;;1.00;0.90;;;24.30;65.70;;;;;;4993058;28;20658;-49
2021/07/15 06:37:18;;;;;;;2.38;0.90;;;24.30;65.80;;;;;;4994920;28;20373;-47
2021/07/15 06:39:44;;;;;;;1.20;1.00;;;24.30;65.80;;;;;;5002098;28;20613;-44
2021/07/15 06:42:11;;;;;;;2.25;0.95;;;24.30;66.00;;;;;;4999080;28;20735;-44
2021/07/15 06:44:37;;;;;;;1.20;1.10;;;24.40;65.90;;;;;;5000947;28;21050;-47
2021/07/15 06:47:07;;;;;;;1.10;1.00;;;24.40;65.90;;;;;;5006873;28;20659;-52
2021/07/15 06:49:33;;;;;;;2.67;1.13;;;24.40;65.90;;;;;;4988211;28;20258;-51
2021/07/15 06:52:00;;;;;;;1.38;1.20;;;24.40;66.20;;;;;;5004761;28;20218;-48
2021/07/15 06:54:26;;;;;;;2.75;1.10;;;24.40;66.20;;;;;;4997402;28;20612;-52
2021/07/15 06:56:53;;;;;;;1.48;1.10;;;24.40;66.50;;;;;;5012699;28;20685;-57
2021/07/15 06:59:19;;;;;;;4.93;1.20;;;24.30;65.30;;;;;;4997263;28;20732;-56
2021/07/15 07:01:46;;;;;;;7.03;1.17;;;24.30;65.50;;;;;;4994726;28;20494;-43
2021/07/15 07:04:12;;;;;;;1.85;0.98;;;24.40;65.40;;;;;;4984693;28;20935;-44
2021/07/15 07:06:38;;;;;;;0.95;0.90;;;24.40;65.30;;;;;;4998976;28;20229;-45
2021/07/15 07:09:05;;;;;;;4.18;1.02;;;24.40;65.50;;;;;;4988760;28;20547;-48
2021/07/15 07:11:31;;;;;;;2.70;1.25;;;24.40;66.00;;;;;;5010213;28;20207;-48
2021/07/15 07:13:58;;;;;;;2.40;1.10;;;24.40;65.80;;;;;;4999846;28;20564;-46
2021/07/15 07:16:24;;;;;;;1.13;1.00;;;24.40;65.80;;;;;;4993993;28;20571;-44
2021/07/15 07:18:51;;;;;;;2.35;1.10;;;24.40;65.60;;;;;;4997644;28;20250;-46
2021/07/15 07:21:17;;;;;;;1.23;0.82;;;24.50;65.50;;;;;;5003117;28;20267;-56
2021/07/15 07:23:44;;;;;;;3.22;1.00;;;24.40;65.50;;;;;;4998467;28;20210;-46
2021/07/15 07:26:10;;;;;;;0.95;0.90;;;24.50;66.20;;;;;;4985891;28;20528;-44
2021/07/15 07:28:37;;;;;;;2.03;0.85;;;24.50;66.00;;;;;;5008384;28;20207;-53
2021/07/15 07:31:03;;;;;;;0.95;0.90;;;24.50;65.90;;;;;;4993405;28;20210;-48
2021/07/15 07:33:29;;;;;;;0.82;0.80;;;24.50;65.90;;;;;;5011272;28;20254;-50
2021/07/15 07:35:56;;;;;;;0.88;0.77;;;24.50;65.70;;;;;;4993447;28;20260;-46
2021/07/15 07:38:22;;;;;;;1.30;0.80;;;24.50;66.00;;;;;;4994249;28;20208;-51
2021/07/15 07:40:49;;;;;;;0.70;0.70;;;24.50;66.00;;;;;;4992556;28;20211;-53
2021/07/15 07:43:15;;;;;;;2.22;1.00;;;24.50;65.80;;;;;;4999268;28;20204;-51
2021/07/15 07:45:42;;;;;;;1.00;1.00;;;24.40;65.00;;;;;;5000859;28;20583;-50
2021/07/15 07:48:08;;;;;;;2.58;1.02;;;24.40;65.60;;;;;;4995666;28;20560;-52
2021/07/15 07:50:35;;;;;;;1.13;0.90;;;24.30;65.30;;;;;;5003713;28;20230;-48
2021/07/15 07:53:01;;;;;;;2.67;1.00;;;24.30;65.00;;;;;;4994480;28;20204;-46
2021/07/15 07:55:27;;;;;;;1.00;0.80;;;24.30;65.40;;;;;;4992382;28;20306;-51
2021/07/15 07:57:54;;;;;;;1.27;0.80;;;24.40;65.30;;;;;;4992808;28;20211;-50
2021/07/15 08:00:20;;;;;;;2.03;0.90;;;24.40;65.80;;;;;;4995345;28;20231;-55
2021/07/15 08:02:47;;;;;;;0.90;0.90;;;24.40;66.00;;;;;;4998683;28;20632;-54
2021/07/15 08:05:14;;;;;;;0.80;0.80;;;24.50;65.90;;;;;;4993658;28;20671;-53
2021/07/15 08:07:41;;;;;;;0.88;0.88;;;24.50;65.80;;;;;;5005970;28;20196;-56
2021/07/15 08:10:07;;;;;;;1.55;1.05;;;24.50;65.90;;;;;;5006135;28;20231;-55
2021/07/15 08:12:34;;;;;;;3.35;1.05;;;24.50;65.90;;;;;;5005598;28;20203;-47
2021/07/15 08:15:00;;;;;;;0.90;0.90;;;24.50;65.70;;;;;;4979711;28;20262;-45
2021/07/15 08:17:26;;;;;;;2.33;1.20;;;24.50;65.70;;;;;;5009741;28;20209;-49
2021/07/15 08:19:53;;;;;;;1.17;0.90;;;24.50;65.80;;;;;;5004287;28;20227;-51
2021/07/15 08:22:19;;;;;;;4.20;1.08;;;24.50;66.80;;;;;;4987988;28;20207;-58
2021/07/15 08:24:46;;;;;;;4.97;0.98;;;24.60;66.80;;;;;;4991834;28;20231;-51
2021/07/15 08:27:12;;;;;;;2.42;1.13;;;24.50;66.50;;;;;;4991814;28;20211;-49
2021/07/15 08:29:39;;;;;;;1.55;1.10;;;24.50;66.30;;;;;;4996565;28;20294;-53
2021/07/15 08:32:06;;;;;;;2.13;1.10;;;24.50;66.20;;;;;;4990161;28;20200;-56
2021/07/15 08:34:32;;;;;;;1.27;0.98;;;24.50;66.20;;;;;;4991909;28;20230;-54
2021/07/15 08:36:59;;;;;;;4.35;1.00;;;24.60;66.10;;;;;;4991288;28;20206;-52
2021/07/15 08:39:25;;;;;;;2.13;1.15;;;24.50;66.80;;;;;;4987993;28;20869;-49
2021/07/15 08:41:52;;;;;;;2.33;0.95;;;24.50;66.90;;;;;;4989813;28;20650;-52
2021/07/15 08:44:18;;;;;;;1.00;0.90;;;24.50;67.00;;;;;;4994633;28;20769;-54
2021/07/15 08:46:47;;;;;;;1.77;1.17;;;24.50;66.90;;;;;;5005765;28;20199;-52
2021/07/15 08:49:13;;;;;;;1.10;0.90;;;24.50;66.90;;;;;;4997473;28;20274;-52
2021/07/15 08:51:40;;;;;;;1.55;1.02;;;24.50;66.90;;;;;;4994640;28;20624;-50
2021/07/15 08:54:06;;;;;;;1.73;0.85;;;24.50;67.00;;;;;;4990256;28;20596;-49
2021/07/15 08:56:38;;;;;;;2.13;1.08;;;24.50;66.80;;;;;;4994438;28;20291;-52
2021/07/15 08:59:04;;;;;;;1.20;0.75;;;24.50;66.80;;;;;;4990991;28;20225;-52
2021/07/15 09:01:31;;;;;;;2.72;1.00;;;24.50;66.90;;;;;;4980653;28;20204;-48
2021/07/15 09:03:57;;;;;;;1.42;1.00;;;24.50;67.10;;;;;;4978636;28;20310;-51
2021/07/15 09:06:24;;;;;;;2.33;0.98;;;24.50;67.10;;;;;;4988010;28;20228;-47
2021/07/15 09:08:50;;;;;;;1.05;0.90;;;24.50;67.00;;;;;;4989797;28;20298;-49
2021/07/15 09:11:16;;;;;;;1.45;0.80;;;24.50;67.00;;;;;;4997805;28;20199;-45
2021/07/15 09:13:43;;;;;;;1.60;0.93;;;24.50;67.00;;;;;;4991337;28;20220;-50
2021/07/15 09:16:09;;;;;;;2.08;0.90;;;24.50;67.00;;;;;;4991093;28;20196;-50
2021/07/15 09:18:36;;;;;;;1.15;0.95;;;24.50;67.00;;;;;;4988689;28;20214;-52
2021/07/15 09:21:02;;;;;;;2.78;1.00;;;24.50;66.90;;;;;;5002106;28;20231;-48
2021/07/15 09:23:29;;;;;;;0.88;0.88;;;24.60;67.00;;;;;;4994879;28;20215;-46
2021/07/15 09:25:55;;;;;;;1.05;0.98;;;24.60;66.90;;;;;;5009170;28;20645;-45
2021/07/15 09:28:22;;;;;;;1.17;1.00;;;24.60;66.90;;;;;;4996085;28;20212;-50
2021/07/15 09:30:48;;;;;;;2.10;1.20;;;24.60;66.90;;;;;;4996436;28;20221;-48
2021/07/15 09:33:15;;;;;;;0.88;0.88;;;24.50;67.00;;;;;;4990090;28;20222;-50
2021/07/15 09:35:41;;;;;;;1.10;1.00;;;24.60;67.00;;;;;;4992196;28;20282;-47
2021/07/15 09:38:08;;;;;;;0.90;0.90;;;24.60;67.00;;;;;;4991765;28;20207;-50
2021/07/15 09:40:34;;;;;;;2.85;1.00;;;24.50;66.90;;;;;;4985143;28;20250;-48
2021/07/15 09:43:01;;;;;;;1.08;0.77;;;24.60;66.90;;;;;;4986190;28;20291;-52
2021/07/15 09:45:27;;;;;;;0.70;0.70;;;24.60;66.80;;;;;;4985858;28;20206;-50
2021/07/15 09:47:54;;;;;;;1.35;0.90;;;24.60;66.80;;;;;;4989596;28;20204;-47
2021/07/15 09:50:20;;;;;;;0.80;0.80;;;24.60;66.80;;;;;;4988705;28;20210;-50
2021/07/15 09:52:47;;;;;;;1.30;1.00;;;24.60;66.70;;;;;;4985076;28;20201;-49
2021/07/15 09:55:13;;;;;;;2.60;0.93;;;24.60;66.70;;;;;;4978507;28;20235;-47
2021/07/15 09:57:40;;;;;;;1.40;0.88;;;24.60;66.70;;;;;;4987755;28;20203;-49
2021/07/15 10:00:06;;;;;;;0.85;0.70;;;24.60;66.70;;;;;;4985133;28;20732;-51
2021/07/15 10:02:33;;;;;;;2.05;0.85;;;24.60;66.70;;;;;;4988936;28;20199;-51
2021/07/15 10:04:59;;;;;;;0.88;0.88;;;24.60;66.70;;;;;;4987076;28;20247;-48
2021/07/15 10:07:25;;;;;;;0.70;0.70;;;24.60;66.70;;;;;;4988642;28;20363;-50
2021/07/15 10:09:52;;;;;;;3.53;1.10;;;24.60;66.60;;;;;;5000943;28;20203;-52
2021/07/15 10:12:18;;;;;;;1.15;0.90;;;24.60;66.60;;;;;;4972921;28;20208;-46
2021/07/15 10:14:46;;;;;;;1.33;0.90;;;24.60;66.30;;;;;;4998739;28;20223;-52
2021/07/15 10:17:12;;;;;;;1.10;0.98;;;24.60;66.30;;;;;;4990217;28;20215;-52
2021/07/15 10:19:39;;;;;;;0.93;0.93;;;24.60;66.40;;;;;;4989143;28;20234;-50
2021/07/15 10:22:07;;;;;;;1.17;1.00;;;24.60;66.30;;;;;;4981033;28;20287;-49
2021/07/15 10:24:33;;;;;;;1.10;1.00;;;24.60;66.30;;;;;;4986988;28;20291;-48
2021/07/15 10:27:00;;;;;;;0.80;0.80;;;24.60;66.20;;;;;;4989559;28;20200;-50
2021/07/15 10:29:26;;;;;;;1.00;0.80;;;24.60;66.20;;;;;;4989915;28;20212;-49
2021/07/15 10:31:53;;;;;;;2.03;1.00;;;24.60;66.10;;;;;;4988367;28;20204;-48
2021/07/15 10:34:19;;;;;;;1.13;0.88;;;24.60;66.10;;;;;;4993861;28;20232;-56
2021/07/15 10:36:46;;;;;;;1.42;1.00;;;24.60;66.10;;;;;;4993077;28;20207;-56
2021/07/15 10:39:13;;;;;;;0.80;0.80;;;24.60;66.10;;;;;;4989513;28;20206;-53
2021/07/15 10:41:40;;;;;;;0.80;0.80;;;24.60;66.20;;;;;;4990080;28;20239;-49
2021/07/15 10:44:06;;;;;;;0.60;0.60;;;24.60;66.00;;;;;;4993532;28;20228;-53
2021/07/15 10:46:33;;;;;;;1.00;0.90;;;24.60;66.10;;;;;;5005527;28;20205;-52
2021/07/15 10:48:59;;;;;;;1.13;0.90;;;24.60;65.90;;;;;;4997468;28;20208;-53
2021/07/15 10:51:26;;;;;;;0.82;0.70;;;24.60;65.70;;;;;;4999459;28;20204;-50
2021/07/15 10:53:52;;;;;;;0.90;0.80;;;24.70;65.80;;;;;;4985492;28;20220;-55
2021/07/15 10:56:18;;;;;;;0.85;0.80;;;24.70;66.00;;;;;;4995899;28;20207;-56
2021/07/15 10:58:45;;;;;;;1.02;0.80;;;24.60;66.10;;;;;;4999625;28;20671;-55
2021/07/15 11:01:11;;;;;;;0.90;0.90;;;24.60;65.90;;;;;;4988445;28;20714;-53
2021/07/15 11:03:38;;;;;;;9.85;1.23;;;24.60;65.80;;;;;;4993690;28;20227;-55
2021/07/15 11:06:04;;;;;;;0.77;0.70;;;24.60;65.70;;;;;;4992008;28;20666;-54
2021/07/15 11:08:31;;;;;;;0.80;0.80;;;24.60;65.60;;;;;;4988355;28;20283;-55
2021/07/15 11:10:57;;;;;;;1.70;1.00;;;24.60;65.50;;;;;;4994156;28;20715;-53
2021/07/15 11:13:23;;;;;;;2.03;0.80;;;24.60;65.50;;;;;;5013834;28;20223;-58
2021/07/15 11:15:52;;;;;;;1.10;1.00;;;24.70;65.60;;;;;;5003584;28;20222;-55
2021/07/15 11:18:19;;;;;;;1.05;1.00;;;24.60;65.40;;;;;;5013668;28;20203;-56
2021/07/15 11:20:45;;;;;;;1.38;0.70;;;24.60;65.50;;;;;;5000290;28;20227;-55
2021/07/15 11:23:12;;;;;;;0.80;0.80;;;24.60;65.30;;;;;;4990524;28;20638;-54
2021/07/15 11:25:41;;;;;;;2.20;1.23;;;24.60;65.60;;;;;;4989879;28;20200;-56
2021/07/15 11:28:08;;;;;;;0.93;0.60;;;24.60;66.00;;;;;;4993960;28;20239;-52
2021/07/15 11:30:35;;;;;;;21.85;13.82;;;24.60;66.00;;;;;;4991228;28;20315;-52
2021/07/15 11:33:01;;;;;;;28.17;19.73;;;24.70;66.60;;;;;;4993719;28;20330;-50
2021/07/15 11:35:27;;;;;;;35.45;25.75;;;24.70;66.70;;;;;;5001321;28;20199;-53
2021/07/15 11:37:54;;;;;;;32.28;25.27;;;24.70;66.80;;;;;;5011429;28;20215;-56
2021/07/15 11:40:20;;;;;;;27.77;19.80;;;24.70;66.90;;;;;;4982372;28;20232;-55
2021/07/15 11:42:47;;;;;;;26.02;18.20;;;24.70;66.80;;;;;;4997521;28;20207;-54
2021/07/15 11:45:13;;;;;;;22.08;16.30;;;24.70;66.70;;;;;;4984625;28;20315;-54
2021/07/15 11:47:40;;;;;;;17.65;13.82;;;24.70;66.50;;;;;;4993978;28;20203;-56
2021/07/15 11:50:06;;;;;;;16.48;12.43;;;24.60;66.40;;;;;;4999656;28;20214;-56
2021/07/15 11:52:33;;;;;;;15.48;12.20;;;24.60;66.20;;;;;;5005051;28;20236;-56
2021/07/15 11:54:59;;;;;;;18.20;9.77;;;24.60;66.00;;;;;;5004235;28;20203;-55
2021/07/15 11:57:26;;;;;;;11.45;9.10;;;24.60;65.80;;;;;;5007162;28;20215;-55
2021/07/15 11:59:52;;;;;;;11.68;9.10;;;24.60;65.60;;;;;;5006280;28;20229;-55
2021/07/15 12:02:20;;;;;;;11.57;7.28;;;24.60;65.40;;;;;;4991947;28;20208;-52
2021/07/15 12:04:46;;;;;;;10.88;7.70;;;24.60;65.30;;;;;;4991857;28;20224;-56
2021/07/15 12:07:13;;;;;;;10.70;7.30;;;24.60;65.20;;;;;;4993116;28;20239;-56
2021/07/15 12:09:39;;;;;;;9.73;6.82;;;24.60;65.20;;;;;;4992312;28;20214;-56
2021/07/15 12:12:05;;;;;;;8.02;6.18;;;24.60;65.20;;;;;;5001777;28;20207;-51
2021/07/15 12:14:34;;;;;;;9.38;5.70;;;24.60;65.20;;;;;;4992966;28;20228;-54
2021/07/15 12:17:00;;;;;;;8.10;5.00;;;24.60;65.10;;;;;;4990381;28;20215;-55
2021/07/15 12:19:27;;;;;;;6.95;5.05;;;24.60;64.90;;;;;;4979692;28;20644;-52
2021/07/15 12:21:53;;;;;;;7.63;4.95;;;24.60;64.80;;;;;;4992739;28;20686;-55
2021/07/15 12:24:20;;;;;;;7.80;5.38;;;24.60;65.50;;;;;;4992318;28;20228;-55
2021/07/15 12:26:46;;;;;;;8.82;5.63;;;24.60;65.10;;;;;;4992066;28;20200;-55
2021/07/15 12:29:14;;;;;;;9.40;5.70;;;24.60;65.50;;;;;;4991843;28;20281;-55
2021/07/15 12:31:41;;;;;;;7.00;5.35;;;24.60;65.80;;;;;;4992652;28;20524;-56
2021/07/15 12:34:07;;;;;;;8.65;5.75;;;24.60;66.00;;;;;;4995159;28;20224;-55
2021/07/15 12:36:34;;;;;;;6.53;4.35;;;24.60;66.00;;;;;;4992797;28;20235;-53
2021/07/15 12:39:01;;;;;;;6.03;4.43;;;24.70;67.00;;;;;;5004661;28;20632;-55
2021/07/15 12:41:27;;;;;;;6.15;4.35;;;24.70;66.20;;;;;;4983330;28;20255;-55